Погода Сондерйилендсна 2 недели

Хайфон, Вьетнам

05 - 18 марта
  • 05марта
    Сегодня
    +17°
    +33°
    Ясно и безоблачно
    ВремяПогодаТемператураВлажностьДавлениеВетер, м/сВероятность осадков
    01:00Ясно и безоблачно+21°C42 %699 мм2.6 м/с2 %
    04:00Ясно и безоблачно+19°C46 %698 мм2.1 м/с2 %
    07:00Ясно и безоблачно+18°C52 %699 мм1.0 м/с2 %
    10:00Ясно и безоблачно+27°C31 %702 мм2.1 м/с2 %
    13:00Ясно и безоблачно+31°C20 %700 мм4.4 м/с2 %
    16:00Ясно и безоблачно+32°C19 %698 мм3.3 м/с2 %
    19:00Ясно и безоблачно+28°C32 %699 мм0.9 м/с2 %
    22:00Ясно и безоблачно+24°C36 %699 мм0.3 м/с2 %
  • 06марта
    Среда
    +17°
    +34°
    Ясно и безоблачно
    ВремяПогодаТемператураВлажностьДавлениеВетер, м/сВероятность осадков
    01:00Ясно и безоблачно+21°C41 %699 мм1.8 м/с2 %
    04:00Ясно и безоблачно+19°C47 %698 мм1.4 м/с2 %
    07:00Ясно и безоблачно+18°C51 %700 мм0.5 м/с2 %
    10:00Ясно и безоблачно+26°C30 %703 мм0.9 м/с2 %
    13:00Ясно и безоблачно+31°C21 %701 мм1.9 м/с3 %
    16:00Ясно и безоблачно+32°C23 %700 мм2.4 м/с2 %
    19:00Ясно и безоблачно+28°C67 %702 мм1.1 м/с2 %
    22:00Ясно и безоблачно+22°C79 %703 мм1.2 м/с2 %
  • 07марта
    Четверг
    +15°
    +30°
    Ясно и безоблачно
    ВремяПогодаТемператураВлажностьДавлениеВетер, м/сВероятность осадков
    01:00Ясно и безоблачно+19°C86 %702 мм2.2 м/с2 %
    04:00Небольшая облачность+18°C89 %702 мм2.4 м/с3 %
    07:00Облачно с прояснениями+18°C81 %703 мм1.6 м/с5 %
    10:00Небольшая облачность+23°C64 %705 мм2.4 м/с6 %
    13:00Ясно и безоблачно+28°C48 %704 мм2.8 м/с3 %
    16:00Ясно и безоблачно+28°C53 %702 мм2.7 м/с5 %
    19:00Небольшая облачность+23°C77 %703 мм2.7 м/с1 %
    22:00Облачно с прояснениями+19°C82 %705 мм1.7 м/с4 %
  • 08марта
    Пятница
    +13°
    +27°
    Облачно с прояснениями
    ВремяПогодаТемператураВлажностьДавлениеВетер, м/сВероятность осадков
    01:00Облачно с прояснениями+17°C81 %704 мм3.2 м/с10 %
    04:00Облачно с прояснениями+17°C79 %704 мм3.2 м/с8 %
    07:00Облачно с прояснениями+16°C79 %705 мм1.7 м/с15 %
    10:00Облачно с прояснениями, ливень+20°C74 %707 мм2.2 м/с36 %
    13:00Облачно с прояснениями+24°C60 %705 мм3.4 м/с40 %
    16:00Небольшая облачность+24°C60 %703 мм2.8 м/с11 %
    19:00Небольшая облачность+20°C76 %704 мм2.1 м/с12 %
    22:00Практически безоблачно+16°C88 %704 мм1.6 м/с31 %
  • 09марта
    Суббота
    +15°
    +27°
    Небольшая облачность
    ВремяПогодаТемператураВлажностьДавлениеВетер, м/сВероятность осадков
    01:00Небольшая облачность+15°C91 %704 мм2.3 м/с3 %
    04:00Облачно с прояснениями+14°C91 %703 мм1.5 м/с2 %
    07:00Облачно с прояснениями+14°C89 %705 мм1.0 м/с18 %
    10:00Практически безоблачно+20°C67 %706 мм1.1 м/с46 %
    13:00Небольшая облачность+25°C50 %703 мм1.9 м/с40 %
    16:00Практически безоблачно+26°C53 %702 мм2.3 м/с29 %
    19:00Ясно и безоблачно+21°C78 %703 мм2.2 м/с16 %
    22:00Небольшая облачность+17°C89 %704 мм1.5 м/с22 %
Мы используем cookies
Соглашаюсь